createdAt,value
2022-08-07T00:00:44.497Z,188.74
2022-08-07T00:02:37.059Z,188.76
2022-08-07T00:02:44.839Z,188.55
2022-08-07T00:03:47.343Z,188.52
2022-08-07T00:04:45.266Z,188.78
2022-08-07T00:05:44.733Z,189.06
2022-08-07T00:06:51.556Z,188.97
2022-08-07T00:07:44.745Z,187.99
2022-08-07T00:08:44.760Z,188.62
2022-08-07T00:10:04.737Z,188.46
2022-08-07T00:10:47.973Z,188.76
2022-08-07T00:11:53.847Z,188.96
2022-08-07T00:13:00.794Z,188.49
2022-08-07T00:13:45.075Z,188.65
2022-08-07T00:14:44.996Z,188.76
2022-08-07T00:15:46.823Z,188.68
2022-08-07T00:16:45.069Z,188.51
2022-08-07T00:17:45.095Z,189.02
2022-08-07T00:18:45.110Z,188.99
2022-08-07T00:20:02.475Z,188.88
2022-08-07T00:20:45.184Z,188.75
2022-08-07T00:21:57.261Z,189.08
2022-08-07T00:22:51.822Z,188.46
2022-08-07T00:23:45.339Z,188.23
2022-08-07T00:24:45.330Z,188.96
2022-08-07T00:25:51.731Z,188.87
2022-08-07T00:26:49.554Z,188.43
2022-08-07T00:27:53.512Z,188.36
2022-08-07T00:28:46.215Z,188.34
2022-08-07T00:29:45.536Z,188.56
2022-08-07T00:30:45.611Z,188.65
2022-08-07T00:31:45.660Z,188.94
2022-08-07T00:32:45.644Z,188.79
2022-08-07T00:33:47.693Z,188.54
2022-08-07T00:34:45.738Z,188.43
2022-08-07T00:35:49.568Z,188.28
2022-08-07T00:36:45.759Z,188.73
2022-08-07T00:37:48.353Z,188.61
2022-08-07T00:38:45.881Z,188.56
2022-08-07T00:39:54.664Z,188.96
2022-08-07T00:40:45.875Z,188.56
2022-08-07T00:41:53.591Z,188.05
2022-08-07T00:42:45.997Z,188.34
2022-08-07T00:44:02.097Z,188.55
2022-08-07T00:44:45.998Z,188.81
2022-08-07T00:45:46.444Z,188.85
2022-08-07T00:46:46.115Z,188.40
2022-08-07T00:48:07.636Z,188.53
2022-08-07T00:48:49.995Z,188.63
2022-08-07T00:50:19.154Z,188.77
2022-08-07T00:50:51.233Z,188.64
2022-08-07T00:51:58.540Z,188.81
2022-08-07T00:52:47.293Z,188.40
2022-08-07T00:53:50.899Z,188.81
2022-08-07T00:54:46.318Z,188.66
2022-08-07T00:56:03.207Z,188.22
2022-08-07T00:56:46.381Z,188.70
2022-08-07T00:57:55.630Z,188.55
2022-08-07T00:58:47.167Z,189.02
2022-08-07T00:59:46.521Z,188.71
2022-08-07T01:00:54.031Z,188.48
2022-08-07T01:01:46.644Z,188.94
2022-08-07T01:02:46.608Z,188.69
2022-08-07T01:03:54.873Z,189.06
2022-08-07T01:04:46.720Z,189.07
2022-08-07T01:05:51.650Z,188.80
2022-08-07T01:06:46.748Z,188.94
2022-08-07T01:07:46.877Z,189.04
2022-08-07T01:08:52.921Z,188.74
2022-08-07T01:10:06.253Z,188.78
2022-08-07T01:10:47.753Z,188.58
2022-08-07T01:12:09.881Z,188.75
2022-08-07T01:12:53.787Z,188.75
2022-08-07T01:13:56.104Z,189.02
2022-08-07T01:14:47.026Z,188.78
2022-08-07T01:16:00.801Z,188.93
2022-08-07T01:16:48.070Z,189.20
2022-08-07T01:17:47.148Z,189.03
2022-08-07T01:18:47.176Z,189.32
2022-08-07T01:19:54.417Z,188.82
2022-08-07T01:20:57.419Z,189.12
2022-08-07T01:21:47.282Z,188.95
2022-08-07T01:23:00.460Z,188.67
2022-08-07T01:23:47.354Z,188.82
2022-08-07T01:24:47.498Z,188.92
2022-08-07T01:25:55.731Z,189.02
2022-08-07T01:26:47.883Z,188.86
2022-08-07T01:27:51.153Z,188.64
2022-08-07T01:28:48.308Z,188.71
2022-08-07T01:29:47.501Z,188.66
2022-08-07T01:30:51.184Z,188.46
2022-08-07T01:31:48.344Z,188.79
2022-08-07T01:32:47.605Z,188.75
2022-08-07T01:33:55.105Z,188.95
2022-08-07T01:34:49.199Z,188.55
2022-08-07T01:35:54.230Z,188.28
2022-08-07T01:36:57.645Z,188.85
2022-08-07T01:37:47.748Z,188.60
2022-08-07T01:38:47.787Z,188.85
2022-08-07T01:39:47.924Z,189.13
2022-08-07T01:40:47.865Z,188.78
2022-08-07T01:42:07.283Z,188.77
2022-08-07T01:42:58.685Z,188.82
2022-08-07T01:43:47.997Z,188.63
2022-08-07T01:44:48.072Z,188.78
2022-08-07T01:45:48.011Z,188.68
2022-08-07T01:46:48.049Z,188.73
2022-08-07T01:48:19.073Z,188.37
2022-08-07T01:48:48.154Z,188.70
2022-08-07T01:49:48.210Z,188.81
2022-08-07T01:50:48.195Z,189.08
2022-08-07T01:52:01.573Z,188.47
2022-08-07T01:52:49.469Z,188.73
2022-08-07T01:54:09.642Z,188.55
2022-08-07T01:54:48.329Z,188.61
2022-08-07T01:55:48.419Z,188.99
2022-08-07T01:56:49.452Z,188.58
2022-08-07T01:58:05.574Z,188.97
2022-08-07T01:58:48.477Z,189.01
2022-08-07T01:59:48.552Z,188.86
2022-08-07T02:00:49.191Z,188.86
2022-08-07T02:02:01.588Z,188.85
2022-08-07T02:03:19.016Z,189.24
2022-08-07T02:03:50.865Z,188.77
2022-08-07T02:04:56.300Z,188.19
2022-08-07T02:06:00.072Z,188.53
2022-08-07T02:06:48.740Z,188.72
2022-08-07T02:07:50.608Z,188.31
2022-08-07T02:08:48.836Z,188.69
2022-08-07T02:09:53.083Z,188.58
2022-08-07T02:10:48.859Z,188.89
2022-08-07T02:12:04.960Z,189.00
2022-08-07T02:12:50.314Z,189.14
2022-08-07T02:14:00.669Z,188.74
2022-08-07T02:14:48.996Z,188.87
2022-08-07T02:15:49.031Z,188.72
2022-08-07T02:16:49.056Z,188.57
2022-08-07T02:17:49.240Z,189.15
2022-08-07T02:18:49.187Z,188.94
2022-08-07T02:20:04.966Z,188.65
2022-08-07T02:20:49.207Z,188.92
2022-08-07T02:21:55.519Z,188.93
2022-08-07T02:22:53.010Z,189.04
2022-08-07T02:23:49.473Z,188.78
2022-08-07T02:24:49.336Z,188.63
2022-08-07T02:26:31.302Z,188.64
2022-08-07T02:26:49.402Z,188.40
2022-08-07T02:27:52.104Z,188.46
2022-08-07T02:28:49.458Z,188.52
2022-08-07T02:29:54.127Z,188.81
2022-08-07T02:30:49.525Z,188.58
2022-08-07T02:31:49.580Z,188.90
2022-08-07T02:33:00.706Z,188.78
2022-08-07T02:34:04.168Z,188.73
2022-08-07T02:34:51.283Z,188.61
2022-08-07T02:36:30.420Z,188.71
2022-08-07T02:36:49.737Z,188.73
2022-08-07T02:37:49.766Z,188.55
2022-08-07T02:38:50.576Z,188.91
2022-08-07T02:40:12.155Z,189.03
2022-08-07T02:40:55.291Z,188.83
2022-08-07T02:41:54.499Z,189.14
2022-08-07T02:42:49.934Z,188.48
2022-08-07T02:43:49.984Z,188.54
2022-08-07T02:44:50.018Z,188.43
2022-08-07T02:45:58.209Z,188.64
2022-08-07T02:46:52.918Z,188.58
2022-08-07T02:47:50.219Z,188.73
2022-08-07T02:48:54.909Z,188.26
2022-08-07T02:49:58.254Z,188.57
2022-08-07T02:50:50.192Z,188.41
2022-08-07T02:51:52.205Z,188.27
2022-08-07T02:52:50.293Z,188.59
2022-08-07T02:53:50.360Z,188.47
2022-08-07T02:54:50.336Z,188.87
2022-08-07T02:56:03.371Z,188.73
2022-08-07T02:56:50.398Z,188.86
2022-08-07T02:57:50.448Z,188.54
2022-08-07T02:58:50.450Z,188.66
2022-08-07T02:59:54.894Z,188.63
2022-08-07T03:00:50.613Z,188.65
2022-08-07T03:01:52.308Z,188.49
2022-08-07T03:02:54.259Z,188.21
2022-08-07T03:03:51.017Z,188.74
2022-08-07T03:04:50.639Z,188.56
2022-08-07T03:05:50.667Z,188.80
2022-08-07T03:06:50.717Z,188.47
2022-08-07T03:08:07.166Z,188.76
2022-08-07T03:08:50.843Z,188.74
2022-08-07T03:09:52.633Z,188.43
2022-08-07T03:10:50.850Z,188.77
2022-08-07T03:11:51.877Z,188.78
2022-08-07T03:12:51.893Z,188.54
2022-08-07T03:13:50.951Z,188.49
2022-08-07T03:14:52.420Z,188.64
2022-08-07T03:15:56.206Z,188.68
2022-08-07T03:16:51.040Z,188.77
2022-08-07T03:17:53.751Z,188.98
2022-08-07T03:18:51.122Z,188.70
2022-08-07T03:19:54.777Z,188.60
2022-08-07T03:20:51.252Z,188.65
2022-08-07T03:21:51.321Z,188.45
2022-08-07T03:22:51.316Z,188.55
2022-08-07T03:24:19.283Z,188.33
2022-08-07T03:24:51.315Z,188.71
2022-08-07T03:25:58.487Z,188.36
2022-08-07T03:26:58.996Z,188.41
2022-08-07T03:28:09.174Z,188.42
2022-08-07T03:28:51.817Z,188.34
2022-08-07T03:29:51.532Z,188.67
2022-08-07T03:30:51.533Z,188.72
2022-08-07T03:31:51.556Z,188.48
2022-08-07T03:32:58.691Z,188.55
2022-08-07T03:33:51.796Z,188.62
2022-08-07T03:35:00.894Z,188.79
2022-08-07T03:35:51.931Z,188.72
2022-08-07T03:36:51.940Z,188.38
2022-08-07T03:37:54.037Z,188.60
2022-08-07T03:38:51.935Z,188.51
2022-08-07T03:40:13.224Z,188.41
2022-08-07T03:40:53.950Z,188.32
2022-08-07T03:41:53.278Z,188.14
2022-08-07T03:42:52.074Z,188.31
2022-08-07T03:43:56.866Z,188.13
2022-08-07T03:44:53.551Z,188.58
2022-08-07T03:45:52.215Z,188.25
2022-08-07T03:47:13.539Z,188.37
2022-08-07T03:47:52.347Z,188.37
2022-08-07T03:49:02.929Z,188.42
2022-08-07T03:49:53.665Z,188.51
2022-08-07T03:50:55.903Z,188.38
2022-08-07T03:51:55.367Z,188.31
2022-08-07T03:52:52.388Z,188.45
2022-08-07T03:54:32.786Z,188.72
2022-08-07T03:54:54.616Z,188.63
2022-08-07T03:55:57.526Z,188.84
2022-08-07T03:57:03.755Z,188.60
2022-08-07T03:59:05.486Z,188.68
2022-08-07T03:59:07.956Z,188.38
2022-08-07T04:00:02.940Z,188.49
2022-08-07T04:00:55.900Z,188.60
2022-08-07T04:01:52.698Z,188.24
2022-08-07T04:02:52.726Z,188.36
2022-08-07T04:03:55.111Z,188.54
2022-08-07T04:04:52.893Z,188.12
2022-08-07T04:05:52.893Z,188.49
2022-08-07T04:06:52.902Z,188.48
2022-08-07T04:07:52.926Z,188.42
2022-08-07T04:08:53.068Z,188.59
2022-08-07T04:09:53.069Z,188.37
2022-08-07T04:10:54.375Z,188.26
2022-08-07T04:12:27.252Z,188.35
2022-08-07T04:12:53.239Z,188.64
2022-08-07T04:14:10.268Z,188.44
2022-08-07T04:14:53.242Z,188.50
2022-08-07T04:15:53.266Z,188.67
2022-08-07T04:16:58.613Z,188.60
2022-08-07T04:18:58.579Z,188.56
2022-08-07T04:18:59.891Z,188.89
2022-08-07T04:19:54.834Z,188.73
2022-08-07T04:20:54.697Z,188.68
2022-08-07T04:22:04.871Z,188.79
2022-08-07T04:23:01.629Z,188.47
2022-08-07T04:24:07.027Z,188.40
2022-08-07T04:24:53.547Z,188.36
2022-08-07T04:25:53.554Z,188.93
2022-08-07T04:26:53.546Z,188.69
2022-08-07T04:28:00.433Z,188.49
2022-08-07T04:28:53.552Z,188.39
2022-08-07T04:30:01.335Z,188.79
2022-08-07T04:30:56.968Z,188.52
2022-08-07T04:32:09.718Z,188.54
2022-08-07T04:32:58.458Z,188.64
2022-08-07T04:33:55.092Z,188.34
2022-08-07T04:34:53.721Z,188.61
2022-08-07T04:35:54.291Z,188.45
2022-08-07T04:36:54.031Z,188.38
2022-08-07T04:38:06.882Z,188.55
2022-08-07T04:38:54.027Z,188.45
2022-08-07T04:39:54.070Z,188.28
2022-08-07T04:40:56.455Z,188.54
2022-08-07T04:41:54.052Z,188.89
2022-08-07T04:42:54.202Z,188.90
2022-08-07T04:44:12.865Z,188.77
2022-08-07T04:44:54.533Z,188.77
2022-08-07T04:46:00.813Z,188.61
2022-08-07T04:47:04.731Z,188.97
2022-08-07T04:47:57.150Z,188.60
2022-08-07T04:48:55.524Z,188.81
2022-08-07T04:49:57.882Z,189.00
2022-08-07T04:50:54.399Z,189.02
2022-08-07T04:51:54.379Z,188.68
2022-08-07T04:52:54.379Z,188.77
2022-08-07T04:54:01.420Z,188.57
2022-08-07T04:54:54.408Z,188.79
2022-08-07T04:58:11.699Z,188.86
2022-08-07T04:58:15.071Z,188.78
2022-08-07T04:58:24.503Z,188.84
2022-08-07T04:59:18.178Z,188.93
2022-08-07T05:00:14.301Z,189.11
2022-08-07T05:00:54.836Z,188.79
2022-08-07T05:01:54.721Z,188.96
2022-08-07T05:02:54.721Z,188.80
2022-08-07T05:04:07.856Z,188.90
2022-08-07T05:04:54.750Z,188.98
2022-08-07T05:05:57.391Z,189.04
2022-08-07T05:06:54.899Z,188.95
2022-08-07T05:07:55.446Z,189.13
2022-08-07T05:09:01.143Z,188.55
2022-08-07T05:09:54.951Z,188.52
2022-08-07T05:10:58.558Z,188.71
2022-08-07T05:11:56.938Z,189.00
2022-08-07T05:12:58.592Z,188.92
2022-08-07T05:14:52.441Z,189.03
2022-08-07T05:15:03.309Z,189.34
2022-08-07T05:15:55.030Z,188.90
2022-08-07T05:16:55.095Z,188.86
2022-08-07T05:17:55.503Z,188.78
2022-08-07T05:18:55.103Z,188.63
2022-08-07T05:19:55.135Z,188.78
2022-08-07T05:20:55.222Z,189.13
2022-08-07T05:22:00.304Z,188.80
2022-08-07T05:22:55.240Z,188.67
2022-08-07T05:23:55.277Z,188.96
2022-08-07T05:24:55.312Z,188.92
2022-08-07T05:26:11.883Z,189.05
2022-08-07T05:26:55.371Z,189.08
2022-08-07T05:28:15.840Z,189.04
2022-08-07T05:28:55.588Z,188.91
2022-08-07T05:29:55.481Z,188.81
2022-08-07T05:30:55.608Z,188.91
2022-08-07T05:31:55.578Z,188.67
2022-08-07T05:32:55.656Z,189.14
2022-08-07T05:34:04.390Z,189.19
2022-08-07T05:34:55.633Z,188.71
2022-08-07T05:35:55.684Z,189.10
2022-08-07T05:36:55.788Z,188.94
2022-08-07T05:38:08.739Z,188.97
2022-08-07T05:38:59.663Z,189.26
2022-08-07T05:40:13.745Z,188.91
2022-08-07T05:40:55.933Z,188.81
2022-08-07T05:42:01.096Z,189.26
2022-08-07T05:42:56.525Z,189.59
2022-08-07T05:44:12.346Z,189.16
2022-08-07T05:45:04.328Z,189.27
2022-08-07T05:45:56.452Z,189.19
2022-08-07T05:46:56.060Z,189.21
2022-08-07T05:48:02.038Z,189.07
2022-08-07T05:48:58.171Z,189.47
2022-08-07T05:49:56.158Z,189.19
2022-08-07T05:50:56.213Z,189.36
2022-08-07T05:51:56.224Z,189.84
2022-08-07T05:52:56.297Z,189.32
2022-08-07T05:54:12.421Z,188.93
2022-08-07T05:54:58.760Z,189.11
2022-08-07T05:56:03.263Z,188.83
2022-08-07T05:56:56.393Z,189.18
2022-08-07T05:57:56.427Z,188.79
2022-08-07T05:58:56.479Z,189.10
2022-08-07T05:59:58.203Z,189.04
2022-08-07T06:00:56.473Z,188.99
2022-08-07T06:01:56.471Z,189.20
2022-08-07T06:02:56.422Z,189.13
2022-08-07T06:04:01.147Z,189.01
2022-08-07T06:04:56.488Z,188.88
2022-08-07T06:05:56.806Z,189.37
2022-08-07T06:07:03.886Z,189.02
2022-08-07T06:08:13.717Z,189.26
2022-08-07T06:08:56.469Z,188.97
2022-08-07T06:10:05.128Z,188.92
2022-08-07T06:10:56.489Z,189.30
2022-08-07T06:11:56.481Z,189.27
2022-08-07T06:12:56.518Z,189.10
2022-08-07T06:14:12.719Z,188.86
2022-08-07T06:14:58.726Z,189.44
2022-08-07T06:15:56.544Z,189.34
2022-08-07T06:16:57.142Z,189.44
2022-08-07T06:17:56.525Z,189.39
2022-08-07T06:18:56.547Z,189.12
2022-08-07T06:20:03.729Z,189.36
2022-08-07T06:22:11.623Z,189.12
2022-08-07T06:22:15.513Z,189.77
2022-08-07T06:23:02.237Z,189.47
2022-08-07T06:24:46.283Z,189.19
2022-08-07T06:24:58.142Z,189.17
2022-08-07T06:25:57.143Z,189.40
2022-08-07T06:26:56.588Z,189.35
2022-08-07T06:28:01.245Z,189.31
2022-08-07T06:28:56.580Z,189.34
2022-08-07T06:29:56.588Z,189.32
2022-08-07T06:30:58.313Z,189.56
2022-08-07T06:31:56.606Z,189.47
2022-08-07T06:32:56.611Z,189.36
2022-08-07T06:33:56.622Z,189.25
2022-08-07T06:34:56.630Z,189.57
2022-08-07T06:36:13.451Z,189.56
2022-08-07T06:36:56.636Z,189.39
2022-08-07T06:37:56.645Z,188.67
2022-08-07T06:40:13.389Z,187.75
2022-08-07T06:40:16.702Z,188.97
2022-08-07T06:40:56.779Z,189.22
2022-08-07T06:42:01.510Z,189.08
2022-08-07T06:42:56.685Z,189.60
2022-08-07T06:44:01.272Z,189.39
2022-08-07T06:44:56.673Z,189.29
2022-08-07T06:46:00.771Z,189.46
2022-08-07T06:47:10.134Z,190.08
2022-08-07T06:47:58.922Z,189.89
2022-08-07T06:48:56.708Z,189.86
2022-08-07T06:49:58.556Z,189.83
2022-08-07T06:50:56.746Z,189.77
2022-08-07T06:51:59.487Z,189.58
2022-08-07T06:52:56.725Z,189.85
2022-08-07T06:55:27.818Z,190.42
2022-08-07T06:55:32.992Z,189.91
2022-08-07T06:56:01.312Z,190.12
2022-08-07T06:56:56.750Z,189.77
2022-08-07T06:57:57.143Z,189.72
2022-08-07T07:00:12.661Z,189.86
2022-08-07T07:00:14.539Z,190.09
2022-08-07T07:00:56.781Z,190.02
2022-08-07T07:01:56.840Z,190.25
2022-08-07T07:02:57.506Z,189.46
2022-08-07T07:03:58.122Z,190.20
2022-08-07T07:04:56.769Z,189.91
2022-08-07T07:06:05.122Z,189.75
2022-08-07T07:07:00.209Z,190.01
2022-08-07T07:07:59.840Z,190.07
2022-08-07T07:08:58.067Z,190.07
2022-08-07T07:09:56.801Z,189.82
2022-08-07T07:10:57.757Z,190.20
2022-08-07T07:12:09.167Z,190.13
2022-08-07T07:12:56.818Z,189.08
2022-08-07T07:13:58.264Z,189.81
2022-08-07T07:14:56.841Z,189.49
2022-08-07T07:15:56.860Z,190.30
2022-08-07T07:16:56.852Z,190.21
2022-08-07T07:17:56.838Z,190.18
2022-08-07T07:18:56.874Z,189.88
2022-08-07T07:19:59.052Z,190.04
2022-08-07T07:20:56.860Z,190.16
2022-08-07T07:22:05.028Z,189.99
2022-08-07T07:24:06.609Z,190.06
2022-08-07T07:24:08.529Z,190.19
2022-08-07T07:25:02.836Z,190.21
2022-08-07T07:26:34.472Z,189.92
2022-08-07T07:26:56.879Z,190.07
2022-08-07T07:28:02.128Z,190.12
2022-08-07T07:29:39.984Z,189.97
2022-08-07T07:30:08.685Z,189.58
2022-08-07T07:30:56.889Z,189.44
2022-08-07T07:31:56.879Z,189.65
2022-08-07T07:32:56.917Z,189.70
2022-08-07T07:33:57.377Z,189.72
2022-08-07T07:34:56.932Z,189.43
2022-08-07T07:36:05.405Z,189.09
2022-08-07T07:36:56.919Z,189.22
2022-08-07T07:38:02.926Z,189.24
2022-08-07T07:38:56.956Z,189.07
2022-08-07T07:39:56.982Z,189.38
2022-08-07T07:41:01.731Z,189.08
2022-08-07T07:42:08.718Z,188.07
2022-08-07T07:42:56.947Z,187.70
2022-08-07T07:44:17.133Z,187.91
2022-08-07T07:44:56.947Z,188.14
2022-08-07T07:46:38.456Z,187.51
2022-08-07T07:47:04.371Z,186.91
2022-08-07T07:47:57.287Z,181.84
2022-08-07T07:49:00.278Z,187.24
2022-08-07T07:50:34.647Z,181.56
2022-08-07T07:50:57.029Z,181.50
2022-08-07T07:51:57.904Z,179.49
2022-08-07T07:52:57.003Z,179.55
2022-08-07T07:53:57.034Z,176.98
2022-08-07T07:54:57.018Z,178.23
2022-08-07T07:56:00.631Z,182.85
2022-08-07T07:56:57.292Z,177.15
2022-08-07T07:57:58.367Z,174.37
2022-08-07T07:58:57.049Z,172.23
2022-08-07T07:59:57.050Z,171.33
2022-08-07T08:00:57.085Z,166.31
2022-08-07T08:02:02.263Z,165.33
2022-08-07T08:03:04.644Z,166.71
2022-08-07T08:04:10.038Z,168.04
2022-08-07T08:04:57.067Z,164.70
2022-08-07T08:05:57.070Z,157.62
2022-08-07T08:07:00.568Z,161.68
2022-08-07T08:08:00.768Z,161.40
2022-08-07T08:08:57.105Z,170.57
2022-08-07T08:10:04.862Z,164.20
2022-08-07T08:10:57.133Z,167.68
2022-08-07T08:12:02.335Z,170.29
2022-08-07T08:12:59.993Z,168.30
2022-08-07T08:13:57.155Z,170.33
2022-08-07T08:14:57.146Z,164.72
2022-08-07T08:15:58.365Z,164.30
2022-08-07T08:16:57.149Z,162.98
2022-08-07T08:17:58.804Z,161.48
2022-08-07T08:18:57.169Z,161.45
2022-08-07T08:20:17.810Z,159.63
2022-08-07T08:20:57.174Z,159.24
2022-08-07T08:22:03.190Z,158.30
2022-08-07T08:22:57.172Z,155.82
2022-08-07T08:23:57.175Z,153.84
2022-08-07T08:25:18.885Z,154.49
2022-08-07T08:25:57.208Z,152.60
2022-08-07T08:26:57.191Z,151.51
2022-08-07T08:28:01.765Z,151.08
2022-08-07T08:28:57.205Z,151.33
2022-08-07T08:29:57.215Z,148.40
2022-08-07T08:30:57.203Z,148.00
2022-08-07T08:32:17.166Z,144.39
2022-08-07T08:32:57.241Z,138.35
2022-08-07T08:33:57.914Z,140.10
2022-08-07T08:34:57.242Z,135.73
2022-08-07T08:35:57.244Z,137.79
2022-08-07T08:36:58.021Z,138.34
2022-08-07T08:38:00.813Z,138.67
2022-08-07T08:38:57.298Z,136.55
2022-08-07T08:39:58.403Z,136.84
2022-08-07T08:40:57.291Z,134.31
2022-08-07T08:41:59.171Z,140.13
2022-08-07T08:42:57.288Z,135.97
2022-08-07T08:43:59.000Z,134.84
2022-08-07T08:44:57.293Z,136.52
2022-08-07T08:45:59.459Z,133.03
2022-08-07T08:46:57.309Z,133.73
2022-08-07T08:47:57.309Z,134.66
2022-08-07T08:48:57.343Z,135.83
2022-08-07T08:50:04.889Z,139.96
2022-08-07T08:50:57.364Z,142.16
2022-08-07T08:52:13.923Z,140.45
2022-08-07T08:52:57.350Z,140.38
2022-08-07T08:53:57.345Z,140.48
2022-08-07T08:54:57.349Z,136.57
2022-08-07T08:55:59.019Z,134.38
2022-08-07T08:56:57.368Z,132.60
2022-08-07T08:57:57.406Z,131.57
2022-08-07T08:58:58.036Z,132.21
2022-08-07T08:59:57.444Z,132.36
2022-08-07T09:00:57.399Z,129.24
2022-08-07T09:01:59.602Z,129.42
2022-08-07T09:02:57.573Z,127.02
2022-08-07T09:03:57.493Z,128.22
2022-08-07T09:04:57.427Z,122.99
2022-08-07T09:05:57.433Z,126.03
2022-08-07T09:06:57.423Z,126.36
2022-08-07T09:07:58.460Z,123.15
2022-08-07T09:08:57.422Z,127.68
2022-08-07T09:09:57.503Z,123.67
2022-08-07T09:10:57.427Z,124.37
2022-08-07T09:12:08.999Z,123.31
2022-08-07T09:12:57.455Z,127.42
2022-08-07T09:13:57.457Z,125.93
2022-08-07T09:14:58.868Z,113.55
2022-08-07T09:16:21.957Z,110.90
2022-08-07T09:16:57.491Z,115.00
2022-08-07T09:17:59.656Z,114.21
2022-08-07T09:18:58.503Z,113.79
2022-08-07T09:19:57.484Z,114.00
2022-08-07T09:20:58.525Z,114.53
2022-08-07T09:22:10.032Z,112.09
2022-08-07T09:24:33.475Z,113.08
2022-08-07T09:24:33.685Z,112.77
2022-08-07T09:25:01.557Z,111.87
2022-08-07T09:25:57.512Z,112.33
2022-08-07T09:26:57.512Z,111.99
2022-08-07T09:28:00.993Z,114.17
2022-08-07T09:30:04.702Z,113.22
2022-08-07T09:30:05.298Z,113.89
2022-08-07T09:30:57.531Z,113.11
2022-08-07T09:31:57.575Z,114.42
2022-08-07T09:32:57.585Z,114.80
2022-08-07T09:33:58.207Z,113.67
2022-08-07T09:34:57.601Z,112.33
2022-08-07T09:36:05.468Z,112.42
2022-08-07T09:36:57.562Z,112.83
2022-08-07T09:37:57.567Z,113.30
2022-08-07T09:38:57.719Z,113.86
2022-08-07T09:39:58.023Z,113.56
2022-08-07T09:40:57.597Z,110.01
2022-08-07T09:41:58.906Z,110.78
2022-08-07T09:42:57.599Z,110.78
2022-08-07T09:44:06.614Z,111.82
2022-08-07T09:47:23.588Z,112.31
2022-08-07T09:47:25.462Z,112.31
2022-08-07T09:47:49.375Z,112.11
2022-08-07T09:48:01.245Z,113.15
2022-08-07T09:50:01.496Z,114.43
2022-08-07T09:50:02.770Z,115.03
2022-08-07T09:50:57.618Z,114.49
2022-08-07T09:52:16.489Z,115.84
2022-08-07T09:52:57.633Z,114.78
2022-08-07T09:54:02.046Z,114.78
2022-08-07T09:54:57.651Z,116.60
2022-08-07T09:56:03.580Z,115.24
2022-08-07T09:56:57.651Z,114.48
2022-08-07T09:57:57.682Z,114.16
2022-08-07T09:58:57.682Z,112.94
2022-08-07T10:00:01.155Z,114.20
2022-08-07T10:00:57.672Z,112.65
2022-08-07T10:01:57.698Z,111.61
2022-08-07T10:02:57.689Z,111.99
2022-08-07T10:04:06.929Z,112.26
2022-08-07T10:04:57.736Z,113.18
2022-08-07T10:05:59.026Z,112.98
2022-08-07T10:06:57.693Z,111.94
2022-08-07T10:07:58.250Z,113.52
2022-08-07T10:08:57.713Z,111.74
2022-08-07T10:10:00.824Z,111.93
2022-08-07T10:11:16.699Z,113.81
2022-08-07T10:12:01.204Z,111.27
2022-08-07T10:12:57.749Z,112.42
2022-08-07T10:14:01.894Z,110.96
2022-08-07T10:14:57.767Z,112.39
2022-08-07T10:15:57.777Z,112.06
2022-08-07T10:16:59.394Z,111.90
2022-08-07T10:18:02.495Z,111.01
2022-08-07T10:18:57.799Z,110.91
2022-08-07T10:19:57.799Z,109.42
2022-08-07T10:20:57.810Z,109.86
2022-08-07T10:22:15.784Z,110.31
2022-08-07T10:22:57.811Z,110.32
2022-08-07T10:24:06.777Z,110.10
2022-08-07T10:24:57.849Z,109.85
2022-08-07T10:25:57.837Z,109.80
2022-08-07T10:26:57.829Z,108.85
2022-08-07T10:27:57.833Z,109.22
2022-08-07T10:28:57.866Z,109.17
2022-08-07T10:29:57.850Z,109.02
2022-08-07T10:30:57.873Z,108.63
2022-08-07T10:31:57.867Z,110.47
2022-08-07T10:32:59.926Z,109.64
2022-08-07T10:34:15.416Z,109.43
2022-08-07T10:34:57.876Z,109.34
2022-08-07T10:36:05.264Z,108.10
2022-08-07T10:36:57.911Z,108.71
2022-08-07T10:38:09.697Z,108.25
2022-08-07T10:38:58.073Z,106.92
2022-08-07T10:40:05.352Z,106.39
2022-08-07T10:40:57.931Z,107.19
2022-08-07T10:42:09.199Z,107.22
2022-08-07T10:42:57.930Z,107.10
2022-08-07T10:44:02.535Z,107.15
2022-08-07T10:44:57.940Z,107.63
2022-08-07T10:45:58.687Z,107.73
2022-08-07T10:46:57.955Z,107.72
2022-08-07T10:48:03.123Z,107.42
2022-08-07T10:48:57.946Z,106.36
2022-08-07T10:49:57.967Z,106.01
2022-08-07T10:50:57.977Z,105.84
2022-08-07T10:52:12.969Z,105.76
2022-08-07T10:52:57.981Z,105.03
2022-08-07T10:54:00.220Z,104.64
2022-08-07T10:55:07.930Z,105.80
2022-08-07T10:55:57.979Z,104.76
2022-08-07T10:56:58.007Z,103.68
2022-08-07T10:57:57.990Z,104.08
2022-08-07T10:59:00.128Z,104.70
2022-08-07T10:59:58.034Z,104.30
2022-08-07T11:00:58.083Z,104.80
2022-08-07T11:02:04.653Z,105.10
2022-08-07T11:02:58.074Z,104.38
2022-08-07T11:04:11.095Z,104.13
2022-08-07T11:04:58.034Z,104.73
2022-08-07T11:05:58.030Z,105.77
2022-08-07T11:06:58.048Z,106.06
2022-08-07T11:08:00.909Z,106.74
2022-08-07T11:08:58.028Z,106.58
2022-08-07T11:10:08.995Z,106.43
2022-08-07T11:10:59.967Z,106.50
2022-08-07T11:11:59.350Z,105.80
2022-08-07T11:13:01.946Z,104.38
2022-08-07T11:14:44.340Z,104.48
2022-08-07T11:15:00.392Z,102.67
2022-08-07T11:15:58.049Z,103.51
2022-08-07T11:17:01.318Z,104.52
2022-08-07T11:18:03.526Z,104.41
2022-08-07T11:18:58.088Z,105.72
2022-08-07T11:19:58.064Z,105.15
2022-08-07T11:20:58.066Z,104.76
2022-08-07T11:21:58.085Z,105.29
2022-08-07T11:22:58.089Z,104.44
2022-08-07T11:23:58.073Z,104.38
2022-08-07T11:24:58.083Z,102.62
2022-08-07T11:26:06.003Z,102.29
2022-08-07T11:26:58.082Z,102.25
2022-08-07T11:28:01.968Z,102.10
2022-08-07T11:28:58.078Z,102.60
2022-08-07T11:30:17.544Z,101.56
2022-08-07T11:30:58.079Z,102.32
2022-08-07T11:31:58.088Z,103.53
2022-08-07T11:32:58.083Z,104.33
2022-08-07T11:34:00.327Z,103.52
2022-08-07T11:34:58.209Z,102.82
2022-08-07T11:35:59.473Z,103.68
2022-08-07T11:36:58.116Z,104.32
2022-08-07T11:38:12.416Z,103.94
2022-08-07T11:38:58.196Z,102.60
2022-08-07T11:40:00.102Z,102.47
2022-08-07T11:40:58.106Z,102.46
2022-08-07T11:42:01.667Z,103.69
2022-08-07T11:42:58.115Z,103.14
2022-08-07T11:44:12.633Z,103.74
2022-08-07T11:44:58.231Z,103.84
2022-08-07T11:45:58.102Z,102.21
2022-08-07T11:46:58.107Z,102.68
2022-08-07T11:47:59.529Z,103.79
2022-08-07T11:49:51.021Z,103.15
2022-08-07T11:50:30.986Z,102.63
2022-08-07T11:50:58.363Z,102.73
2022-08-07T11:51:58.136Z,101.61
2022-08-07T11:52:58.112Z,102.37
2022-08-07T11:54:01.639Z,103.13
2022-08-07T11:54:58.114Z,101.60
2022-08-07T11:56:25.299Z,101.64
2022-08-07T11:56:58.153Z,102.05
2022-08-07T11:58:01.138Z,102.33
2022-08-07T11:58:58.797Z,101.91
2022-08-07T12:00:10.822Z,103.56
2022-08-07T12:01:02.466Z,102.39
2022-08-07T12:01:59.021Z,101.20
2022-08-07T12:02:58.366Z,102.65
2022-08-07T12:03:58.515Z,102.14
2022-08-07T12:04:58.600Z,102.25
2022-08-07T12:05:58.470Z,101.74
2022-08-07T12:07:03.038Z,102.66
2022-08-07T12:08:03.522Z,102.16
2022-08-07T12:08:58.504Z,101.50
2022-08-07T12:09:58.536Z,101.01
2022-08-07T12:11:00.890Z,100.82
2022-08-07T12:12:10.663Z,100.44
2022-08-07T12:12:58.715Z,100.83
2022-08-07T12:13:58.700Z, 99.71
2022-08-07T12:15:01.486Z,100.45
2022-08-07T12:16:06.966Z, 99.16
2022-08-07T12:16:58.787Z, 99.83
2022-08-07T12:18:03.160Z, 99.76
2022-08-07T12:18:58.820Z,100.13
2022-08-07T12:20:04.822Z, 99.67
2022-08-07T12:20:58.897Z, 99.84
2022-08-07T12:22:39.523Z, 99.92
2022-08-07T12:22:59.082Z, 99.76
2022-08-07T12:24:06.753Z,100.74
2022-08-07T12:25:02.195Z,101.10
2022-08-07T12:26:05.400Z,100.61
2022-08-07T12:26:59.141Z,100.72
2022-08-07T12:28:08.416Z,100.59
2022-08-07T12:28:59.166Z,100.20